Union Grove, Wisconsin
Current Conditions -  °F | °C
As of 8:53 AM on Friday 19 Dec 2014 (Local Time) from KENW Reporting Station
Overcast Overcast  
Wind Chill: 19°   Ceiling: 2400
Heat Index: 27°   Visibility: 10mi
Dew Point: 20°   Wind: 7mph
Humidity: 75%   Direction: 330°NNW
Pressure: 30.3"   Gusts: NA
Location:  42.69°N, 88.05°W
Report Text: KENW 191453Z 33006KT 10SM OVC024 M03/M07 A3030 RMK AO2 SLP272 T10281067 53008
Loading
Personal Weather Stations






























Interactive Weather Map New forecast layout! Learn more

10-Day Weather Forecast

Advertisements
Track Severe Weather on mobile